sensor_id;sensor_type;location;lat;lon;timestamp;P1;durP1;ratioP1;P2;durP2;ratioP2
52047;SDS011;46904;49.438;8.752;2023-02-15T00:01:49;14.32;;;9.77;;
52047;SDS011;46904;49.438;8.752;2023-02-15T00:04:15;16.48;;;10.20;;
52047;SDS011;46904;49.438;8.752;2023-02-15T00:06:41;14.63;;;8.85;;
52047;SDS011;46904;49.438;8.752;2023-02-15T00:09:08;14.60;;;9.48;;
52047;SDS011;46904;49.438;8.752;2023-02-15T00:11:34;16.60;;;9.82;;
52047;SDS011;46904;49.438;8.752;2023-02-15T00:14:00;13.70;;;9.32;;
52047;SDS011;46904;49.438;8.752;2023-02-15T00:16:25;16.13;;;9.48;;
52047;SDS011;46904;49.438;8.752;2023-02-15T00:18:51;15.68;;;8.55;;
52047;SDS011;46904;49.438;8.752;2023-02-15T00:21:17;13.63;;;9.25;;
52047;SDS011;46904;49.438;8.752;2023-02-15T00:23:42;13.10;;;8.65;;
52047;SDS011;46904;49.438;8.752;2023-02-15T00:26:09;14.00;;;9.05;;
52047;SDS011;46904;49.438;8.752;2023-02-15T00:28:35;15.23;;;7.65;;
52047;SDS011;46904;49.438;8.752;2023-02-15T00:31:07;12.98;;;7.90;;
52047;SDS011;46904;49.438;8.752;2023-02-15T00:33:33;13.60;;;8.48;;
52047;SDS011;46904;49.438;8.752;2023-02-15T00:35:59;13.32;;;8.18;;
52047;SDS011;46904;49.438;8.752;2023-02-15T00:38:29;11.82;;;8.15;;
52047;SDS011;46904;49.438;8.752;2023-02-15T00:40:55;16.05;;;8.88;;
52047;SDS011;46904;49.438;8.752;2023-02-15T00:43:21;21.33;;;8.85;;
52047;SDS011;46904;49.438;8.752;2023-02-15T00:45:47;13.10;;;7.78;;
52047;SDS011;46904;49.438;8.752;2023-02-15T00:48:12;13.30;;;8.00;;
52047;SDS011;46904;49.438;8.752;2023-02-15T00:50:38;12.43;;;8.20;;
52047;SDS011;46904;49.438;8.752;2023-02-15T00:53:04;15.32;;;9.23;;
52047;SDS011;46904;49.438;8.752;2023-02-15T00:55:29;13.57;;;8.15;;
52047;SDS011;46904;49.438;8.752;2023-02-15T00:57:55;14.93;;;8.77;;
52047;SDS011;46904;49.438;8.752;2023-02-15T01:00:20;12.98;;;8.23;;
52047;SDS011;46904;49.438;8.752;2023-02-15T01:02:46;12.48;;;8.05;;
52047;SDS011;46904;49.438;8.752;2023-02-15T01:05:11;13.02;;;7.97;;
52047;SDS011;46904;49.438;8.752;2023-02-15T01:07:37;12.52;;;8.02;;
52047;SDS011;46904;49.438;8.752;2023-02-15T01:10:02;12.18;;;7.93;;
52047;SDS011;46904;49.438;8.752;2023-02-15T01:12:28;11.82;;;7.68;;
52047;SDS011;46904;49.438;8.752;2023-02-15T01:14:53;13.77;;;8.38;;
52047;SDS011;46904;49.438;8.752;2023-02-15T01:17:19;12.38;;;8.18;;
52047;SDS011;46904;49.438;8.752;2023-02-15T01:19:45;15.18;;;8.77;;
52047;SDS011;46904;49.438;8.752;2023-02-15T01:22:10;15.23;;;8.55;;
52047;SDS011;46904;49.438;8.752;2023-02-15T01:24:36;14.63;;;8.10;;
52047;SDS011;46904;49.438;8.752;2023-02-15T01:27:01;14.63;;;8.77;;
52047;SDS011;46904;49.438;8.752;2023-02-15T01:29:27;13.55;;;9.02;;
52047;SDS011;46904;49.438;8.752;2023-02-15T01:31:52;14.25;;;8.38;;
52047;SDS011;46904;49.438;8.752;2023-02-15T01:34:18;13.88;;;8.48;;
52047;SDS011;46904;49.438;8.752;2023-02-15T01:36:43;14.23;;;9.13;;
52047;SDS011;46904;49.438;8.752;2023-02-15T01:39:10;14.43;;;8.77;;
52047;SDS011;46904;49.438;8.752;2023-02-15T01:41:36;13.35;;;7.93;;
52047;SDS011;46904;49.438;8.752;2023-02-15T01:44:02;13.25;;;8.43;;
52047;SDS011;46904;49.438;8.752;2023-02-15T01:46:31;14.32;;;8.40;;
52047;SDS011;46904;49.438;8.752;2023-02-15T01:49:02;14.93;;;9.57;;
52047;SDS011;46904;49.438;8.752;2023-02-15T01:51:29;21.98;;;12.05;;
52047;SDS011;46904;49.438;8.752;2023-02-15T01:54:01;15.38;;;9.27;;
52047;SDS011;46904;49.438;8.752;2023-02-15T01:56:29;15.85;;;9.52;;
52047;SDS011;46904;49.438;8.752;2023-02-15T01:58:56;14.48;;;8.70;;
52047;SDS011;46904;49.438;8.752;2023-02-15T02:01:24;14.95;;;8.70;;
52047;SDS011;46904;49.438;8.752;2023-02-15T02:04:02;14.10;;;8.65;;
52047;SDS011;46904;49.438;8.752;2023-02-15T02:06:30;14.30;;;8.75;;
52047;SDS011;46904;49.438;8.752;2023-02-15T02:08:56;15.15;;;8.55;;
52047;SDS011;46904;49.438;8.752;2023-02-15T02:11:22;14.45;;;8.75;;
52047;SDS011;46904;49.438;8.752;2023-02-15T02:13:48;15.05;;;9.27;;
52047;SDS011;46904;49.438;8.752;2023-02-15T02:16:17;17.08;;;9.95;;
52047;SDS011;46904;49.438;8.752;2023-02-15T02:24:06;15.57;;;8.95;;
52047;SDS011;46904;49.438;8.752;2023-02-15T02:34:33;25.67;;;9.93;;
52047;SDS011;46904;49.438;8.752;2023-02-15T02:37:20;12.15;;;8.27;;
52047;SDS011;46904;49.438;8.752;2023-02-15T02:42:40;12.70;;;7.80;;
52047;SDS011;46904;49.438;8.752;2023-02-15T02:45:13;12.00;;;7.53;;
52047;SDS011;46904;49.438;8.752;2023-02-15T02:47:45;13.20;;;8.18;;
52047;SDS011;46904;49.438;8.752;2023-02-15T02:50:13;11.98;;;7.40;;
52047;SDS011;46904;49.438;8.752;2023-02-15T02:52:46;12.43;;;7.55;;
52047;SDS011;46904;49.438;8.752;2023-02-15T02:55:16;11.80;;;7.50;;
52047;SDS011;46904;49.438;8.752;2023-02-15T03:00:25;13.00;;;6.95;;
52047;SDS011;46904;49.438;8.752;2023-02-15T03:02:53;12.25;;;7.57;;
52047;SDS011;46904;49.438;8.752;2023-02-15T03:05:21;10.30;;;6.93;;
52047;SDS011;46904;49.438;8.752;2023-02-15T03:07:50;11.82;;;7.70;;
52047;SDS011;46904;49.438;8.752;2023-02-15T03:10:18;10.52;;;6.95;;
52047;SDS011;46904;49.438;8.752;2023-02-15T03:12:46;10.75;;;6.57;;
52047;SDS011;46904;49.438;8.752;2023-02-15T03:15:16;9.52;;;6.50;;
52047;SDS011;46904;49.438;8.752;2023-02-15T03:17:44;10.00;;;6.47;;
52047;SDS011;46904;49.438;8.752;2023-02-15T03:20:14;10.63;;;7.00;;
52047;SDS011;46904;49.438;8.752;2023-02-15T03:22:59;9.82;;;6.28;;
52047;SDS011;46904;49.438;8.752;2023-02-15T03:25:27;9.65;;;7.10;;
52047;SDS011;46904;49.438;8.752;2023-02-15T03:27:58;8.70;;;5.45;;
52047;SDS011;46904;49.438;8.752;2023-02-15T03:30:25;10.63;;;7.53;;
52047;SDS011;46904;49.438;8.752;2023-02-15T03:32:52;8.73;;;6.25;;
52047;SDS011;46904;49.438;8.752;2023-02-15T03:35:21;10.20;;;6.65;;
52047;SDS011;46904;49.438;8.752;2023-02-15T03:37:48;9.80;;;6.82;;
52047;SDS011;46904;49.438;8.752;2023-02-15T03:42:44;9.10;;;6.00;;
52047;SDS011;46904;49.438;8.752;2023-02-15T03:45:11;8.55;;;5.82;;
52047;SDS011;46904;49.438;8.752;2023-02-15T03:47:40;8.73;;;6.45;;
52047;SDS011;46904;49.438;8.752;2023-02-15T03:50:08;8.88;;;6.15;;
52047;SDS011;46904;49.438;8.752;2023-02-15T03:52:35;9.10;;;6.25;;
52047;SDS011;46904;49.438;8.752;2023-02-15T03:55:01;9.85;;;6.05;;
52047;SDS011;46904;49.438;8.752;2023-02-15T03:57:28;10.90;;;6.43;;
52047;SDS011;46904;49.438;8.752;2023-02-15T03:59:53;9.32;;;6.15;;
52047;SDS011;46904;49.438;8.752;2023-02-15T04:02:21;10.25;;;6.68;;
52047;SDS011;46904;49.438;8.752;2023-02-15T04:04:48;9.40;;;5.97;;
52047;SDS011;46904;49.438;8.752;2023-02-15T04:07:13;9.68;;;6.43;;
52047;SDS011;46904;49.438;8.752;2023-02-15T04:09:39;10.48;;;6.47;;
52047;SDS011;46904;49.438;8.752;2023-02-15T04:12:04;10.43;;;6.55;;
52047;SDS011;46904;49.438;8.752;2023-02-15T04:14:30;10.07;;;6.50;;
52047;SDS011;46904;49.438;8.752;2023-02-15T04:16:55;10.45;;;6.72;;
52047;SDS011;46904;49.438;8.752;2023-02-15T04:19:21;10.30;;;7.05;;
52047;SDS011;46904;49.438;8.752;2023-02-15T04:21:46;10.98;;;6.97;;
52047;SDS011;46904;49.438;8.752;2023-02-15T04:24:12;11.20;;;7.13;;
52047;SDS011;46904;49.438;8.752;2023-02-15T04:26:38;8.57;;;6.03;;
52047;SDS011;46904;49.438;8.752;2023-02-15T04:29:04;10.20;;;6.88;;
52047;SDS011;46904;49.438;8.752;2023-02-15T04:31:29;11.15;;;6.82;;
52047;SDS011;46904;49.438;8.752;2023-02-15T04:33:55;9.98;;;6.78;;
52047;SDS011;46904;49.438;8.752;2023-02-15T04:36:20;12.55;;;7.63;;
52047;SDS011;46904;49.438;8.752;2023-02-15T04:38:46;9.75;;;6.60;;
52047;SDS011;46904;49.438;8.752;2023-02-15T04:41:11;10.50;;;6.82;;
52047;SDS011;46904;49.438;8.752;2023-02-15T04:43:37;10.40;;;7.03;;
52047;SDS011;46904;49.438;8.752;2023-02-15T04:46:03;10.85;;;6.35;;
52047;SDS011;46904;49.438;8.752;2023-02-15T04:48:28;9.68;;;6.40;;
52047;SDS011;46904;49.438;8.752;2023-02-15T04:50:54;11.77;;;7.40;;
52047;SDS011;46904;49.438;8.752;2023-02-15T04:53:19;9.98;;;6.78;;
52047;SDS011;46904;49.438;8.752;2023-02-15T04:55:45;9.02;;;6.38;;
52047;SDS011;46904;49.438;8.752;2023-02-15T04:58:10;10.93;;;6.97;;
52047;SDS011;46904;49.438;8.752;2023-02-15T05:00:36;9.48;;;6.43;;
52047;SDS011;46904;49.438;8.752;2023-02-15T05:03:01;10.73;;;7.22;;
52047;SDS011;46904;49.438;8.752;2023-02-15T05:05:27;10.38;;;6.40;;
52047;SDS011;46904;49.438;8.752;2023-02-15T05:07:53;10.48;;;7.13;;
52047;SDS011;46904;49.438;8.752;2023-02-15T05:10:18;10.23;;;6.57;;
52047;SDS011;46904;49.438;8.752;2023-02-15T05:12:44;12.50;;;7.60;;
52047;SDS011;46904;49.438;8.752;2023-02-15T05:15:09;11.00;;;6.88;;
52047;SDS011;46904;49.438;8.752;2023-02-15T05:17:35;11.52;;;6.88;;
52047;SDS011;46904;49.438;8.752;2023-02-15T05:20:01;11.30;;;7.35;;
52047;SDS011;46904;49.438;8.752;2023-02-15T05:22:26;9.75;;;6.75;;
52047;SDS011;46904;49.438;8.752;2023-02-15T05:24:52;8.88;;;6.10;;
52047;SDS011;46904;49.438;8.752;2023-02-15T05:27:17;10.63;;;7.05;;
52047;SDS011;46904;49.438;8.752;2023-02-15T05:29:43;11.50;;;7.30;;
52047;SDS011;46904;49.438;8.752;2023-02-15T05:32:08;12.07;;;7.60;;
52047;SDS011;46904;49.438;8.752;2023-02-15T05:34:34;10.00;;;6.60;;
52047;SDS011;46904;49.438;8.752;2023-02-15T05:37:00;11.32;;;6.80;;
52047;SDS011;46904;49.438;8.752;2023-02-15T05:39:25;10.63;;;6.88;;
52047;SDS011;46904;49.438;8.752;2023-02-15T05:41:51;11.10;;;7.05;;
52047;SDS011;46904;49.438;8.752;2023-02-15T05:44:16;10.68;;;6.53;;
52047;SDS011;46904;49.438;8.752;2023-02-15T05:46:42;11.93;;;7.35;;
52047;SDS011;46904;49.438;8.752;2023-02-15T05:49:07;10.68;;;7.43;;
52047;SDS011;46904;49.438;8.752;2023-02-15T05:51:33;10.38;;;6.78;;
52047;SDS011;46904;49.438;8.752;2023-02-15T05:53:58;11.00;;;7.65;;
52047;SDS011;46904;49.438;8.752;2023-02-15T05:56:24;11.05;;;7.60;;
52047;SDS011;46904;49.438;8.752;2023-02-15T05:58:52;10.32;;;6.55;;
52047;SDS011;46904;49.438;8.752;2023-02-15T06:01:18;12.02;;;7.55;;
52047;SDS011;46904;49.438;8.752;2023-02-15T06:03:44;10.82;;;6.60;;
52047;SDS011;46904;49.438;8.752;2023-02-15T06:06:10;12.68;;;7.38;;
52047;SDS011;46904;49.438;8.752;2023-02-15T06:08:36;10.77;;;6.50;;
52047;SDS011;46904;49.438;8.752;2023-02-15T06:11:01;12.70;;;7.38;;
52047;SDS011;46904;49.438;8.752;2023-02-15T06:13:27;10.00;;;6.43;;
52047;SDS011;46904;49.438;8.752;2023-02-15T06:15:53;10.80;;;7.07;;
52047;SDS011;46904;49.438;8.752;2023-02-15T06:18:18;11.57;;;7.05;;
52047;SDS011;46904;49.438;8.752;2023-02-15T06:20:47;10.82;;;7.00;;
52047;SDS011;46904;49.438;8.752;2023-02-15T06:23:13;12.80;;;7.88;;
52047;SDS011;46904;49.438;8.752;2023-02-15T06:25:39;11.50;;;7.50;;
52047;SDS011;46904;49.438;8.752;2023-02-15T06:28:04;12.77;;;8.48;;
52047;SDS011;46904;49.438;8.752;2023-02-15T06:30:30;11.75;;;7.20;;
52047;SDS011;46904;49.438;8.752;2023-02-15T06:32:56;10.82;;;7.20;;
52047;SDS011;46904;49.438;8.752;2023-02-15T06:35:24;12.20;;;7.50;;
52047;SDS011;46904;49.438;8.752;2023-02-15T06:37:50;11.85;;;7.43;;
52047;SDS011;46904;49.438;8.752;2023-02-15T06:40:16;11.10;;;7.07;;
52047;SDS011;46904;49.438;8.752;2023-02-15T06:42:41;10.52;;;7.32;;
52047;SDS011;46904;49.438;8.752;2023-02-15T06:45:07;11.32;;;7.40;;
52047;SDS011;46904;49.438;8.752;2023-02-15T06:47:33;12.23;;;7.32;;
52047;SDS011;46904;49.438;8.752;2023-02-15T06:49:59;9.70;;;6.63;;
52047;SDS011;46904;49.438;8.752;2023-02-15T06:52:24;14.10;;;8.20;;
52047;SDS011;46904;49.438;8.752;2023-02-15T06:54:50;10.32;;;6.88;;
52047;SDS011;46904;49.438;8.752;2023-02-15T06:57:16;11.02;;;7.32;;
52047;SDS011;46904;49.438;8.752;2023-02-15T06:59:41;12.63;;;7.75;;
52047;SDS011;46904;49.438;8.752;2023-02-15T07:02:08;11.40;;;7.07;;
52047;SDS011;46904;49.438;8.752;2023-02-15T07:04:33;13.10;;;7.70;;
52047;SDS011;46904;49.438;8.752;2023-02-15T07:06:59;11.38;;;7.22;;
52047;SDS011;46904;49.438;8.752;2023-02-15T07:09:25;10.98;;;7.15;;
52047;SDS011;46904;49.438;8.752;2023-02-15T07:11:50;10.00;;;6.80;;
52047;SDS011;46904;49.438;8.752;2023-02-15T07:14:16;10.20;;;7.00;;
52047;SDS011;46904;49.438;8.752;2023-02-15T07:16:41;11.30;;;7.38;;
52047;SDS011;46904;49.438;8.752;2023-02-15T07:19:07;12.88;;;8.05;;
52047;SDS011;46904;49.438;8.752;2023-02-15T07:21:33;13.27;;;8.23;;
52047;SDS011;46904;49.438;8.752;2023-02-15T07:24:02;13.70;;;8.15;;
52047;SDS011;46904;49.438;8.752;2023-02-15T07:26:28;11.77;;;7.40;;
52047;SDS011;46904;49.438;8.752;2023-02-15T07:28:54;12.32;;;7.18;;
52047;SDS011;46904;49.438;8.752;2023-02-15T07:31:19;10.93;;;6.80;;
52047;SDS011;46904;49.438;8.752;2023-02-15T07:33:45;12.40;;;7.95;;
52047;SDS011;46904;49.438;8.752;2023-02-15T07:36:10;10.27;;;6.90;;
52047;SDS011;46904;49.438;8.752;2023-02-15T07:38:36;12.75;;;7.93;;
52047;SDS011;46904;49.438;8.752;2023-02-15T07:41:07;12.63;;;8.18;;
52047;SDS011;46904;49.438;8.752;2023-02-15T07:43:34;15.63;;;8.25;;
52047;SDS011;46904;49.438;8.752;2023-02-15T07:46:00;13.88;;;8.75;;
52047;SDS011;46904;49.438;8.752;2023-02-15T07:48:26;12.60;;;7.90;;
52047;SDS011;46904;49.438;8.752;2023-02-15T07:50:52;15.30;;;7.85;;
52047;SDS011;46904;49.438;8.752;2023-02-15T07:53:17;11.95;;;7.47;;
52047;SDS011;46904;49.438;8.752;2023-02-15T07:55:43;13.02;;;8.85;;
52047;SDS011;46904;49.438;8.752;2023-02-15T07:58:08;12.15;;;7.60;;
52047;SDS011;46904;49.438;8.752;2023-02-15T08:00:34;12.95;;;7.88;;
52047;SDS011;46904;49.438;8.752;2023-02-15T08:02:59;13.13;;;7.97;;
52047;SDS011;46904;49.438;8.752;2023-02-15T08:05:25;14.07;;;8.07;;
52047;SDS011;46904;49.438;8.752;2023-02-15T08:07:51;11.90;;;7.60;;
52047;SDS011;46904;49.438;8.752;2023-02-15T08:10:16;12.30;;;7.95;;
52047;SDS011;46904;49.438;8.752;2023-02-15T08:12:42;13.80;;;8.20;;
52047;SDS011;46904;49.438;8.752;2023-02-15T08:15:07;11.68;;;7.30;;
52047;SDS011;46904;49.438;8.752;2023-02-15T08:17:35;13.65;;;8.50;;
52047;SDS011;46904;49.438;8.752;2023-02-15T08:20:01;13.30;;;7.85;;
52047;SDS011;46904;49.438;8.752;2023-02-15T08:22:26;9.93;;;6.38;;
52047;SDS011;46904;49.438;8.752;2023-02-15T08:24:52;11.52;;;7.13;;
52047;SDS011;46904;49.438;8.752;2023-02-15T08:27:18;12.95;;;8.45;;
52047;SDS011;46904;49.438;8.752;2023-02-15T08:29:43;14.18;;;8.25;;
52047;SDS011;46904;49.438;8.752;2023-02-15T08:32:09;11.57;;;7.38;;
52047;SDS011;46904;49.438;8.752;2023-02-15T08:34:36;10.98;;;7.13;;
52047;SDS011;46904;49.438;8.752;2023-02-15T08:37:03;10.75;;;6.72;;
52047;SDS011;46904;49.438;8.752;2023-02-15T08:39:28;9.40;;;7.13;;
52047;SDS011;46904;49.438;8.752;2023-02-15T08:41:54;9.70;;;6.40;;
52047;SDS011;46904;49.438;8.752;2023-02-15T08:44:19;8.98;;;6.38;;
52047;SDS011;46904;49.438;8.752;2023-02-15T08:46:45;11.43;;;6.97;;
52047;SDS011;46904;49.438;8.752;2023-02-15T08:49:13;11.48;;;7.47;;
52047;SDS011;46904;49.438;8.752;2023-02-15T08:51:38;14.48;;;8.07;;
52047;SDS011;46904;49.438;8.752;2023-02-15T08:54:05;14.18;;;8.65;;
52047;SDS011;46904;49.438;8.752;2023-02-15T08:56:38;13.90;;;8.23;;
52047;SDS011;46904;49.438;8.752;2023-02-15T08:59:04;13.60;;;8.15;;
52047;SDS011;46904;49.438;8.752;2023-02-15T09:01:31;13.38;;;7.95;;
52047;SDS011;46904;49.438;8.752;2023-02-15T09:04:06;12.18;;;7.47;;
52047;SDS011;46904;49.438;8.752;2023-02-15T09:06:32;12.68;;;8.13;;
52047;SDS011;46904;49.438;8.752;2023-02-15T09:08:57;12.63;;;8.10;;
52047;SDS011;46904;49.438;8.752;2023-02-15T09:11:24;12.95;;;7.82;;
52047;SDS011;46904;49.438;8.752;2023-02-15T09:16:45;13.75;;;8.45;;
52047;SDS011;46904;49.438;8.752;2023-02-15T09:19:11;15.00;;;9.18;;
52047;SDS011;46904;49.438;8.752;2023-02-15T09:21:37;14.10;;;8.75;;
52047;SDS011;46904;49.438;8.752;2023-02-15T09:24:04;16.23;;;8.93;;
52047;SDS011;46904;49.438;8.752;2023-02-15T09:26:30;12.43;;;8.77;;
52047;SDS011;46904;49.438;8.752;2023-02-15T09:28:57;13.23;;;8.27;;
52047;SDS011;46904;49.438;8.752;2023-02-15T09:31:26;13.00;;;8.35;;
52047;SDS011;46904;49.438;8.752;2023-02-15T09:33:52;12.80;;;8.68;;
52047;SDS011;46904;49.438;8.752;2023-02-15T09:36:19;14.65;;;8.68;;
52047;SDS011;46904;49.438;8.752;2023-02-15T09:38:45;13.43;;;8.65;;
52047;SDS011;46904;49.438;8.752;2023-02-15T09:43:48;11.88;;;7.63;;
52047;SDS011;46904;49.438;8.752;2023-02-15T09:48:52;12.23;;;8.23;;
52047;SDS011;46904;49.438;8.752;2023-02-15T09:56:53;13.50;;;8.60;;
52047;SDS011;46904;49.438;8.752;2023-02-15T10:00:23;12.38;;;7.18;;
52047;SDS011;46904;49.438;8.752;2023-02-15T10:15:23;16.40;;;9.80;;
52047;SDS011;46904;49.438;8.752;2023-02-15T10:27:55;15.07;;;9.32;;
52047;SDS011;46904;49.438;8.752;2023-02-15T10:30:29;16.33;;;9.95;;
52047;SDS011;46904;49.438;8.752;2023-02-15T10:33:03;14.32;;;9.27;;
52047;SDS011;46904;49.438;8.752;2023-02-15T10:35:37;15.10;;;10.00;;
52047;SDS011;46904;49.438;8.752;2023-02-15T10:38:10;19.23;;;10.90;;
52047;SDS011;46904;49.438;8.752;2023-02-15T10:43:20;15.05;;;9.23;;
52047;SDS011;46904;49.438;8.752;2023-02-15T10:50:57;14.43;;;9.13;;
52047;SDS011;46904;49.438;8.752;2023-02-15T11:01:22;16.73;;;9.90;;
52047;SDS011;46904;49.438;8.752;2023-02-15T11:06:21;14.23;;;8.93;;
52047;SDS011;46904;49.438;8.752;2023-02-15T11:08:50;15.68;;;9.25;;
52047;SDS011;46904;49.438;8.752;2023-02-15T11:11:23;16.90;;;10.00;;
52047;SDS011;46904;49.438;8.752;2023-02-15T11:13:51;16.45;;;9.70;;
52047;SDS011;46904;49.438;8.752;2023-02-15T11:16:21;15.55;;;9.85;;
52047;SDS011;46904;49.438;8.752;2023-02-15T11:18:50;16.02;;;8.98;;
52047;SDS011;46904;49.438;8.752;2023-02-15T11:23:48;14.90;;;9.48;;
52047;SDS011;46904;49.438;8.752;2023-02-15T11:28:59;15.40;;;10.07;;
52047;SDS011;46904;49.438;8.752;2023-02-15T11:31:40;16.88;;;9.98;;
52047;SDS011;46904;49.438;8.752;2023-02-15T11:34:11;16.13;;;10.48;;
52047;SDS011;46904;49.438;8.752;2023-02-15T11:36:38;17.67;;;10.20;;
52047;SDS011;46904;49.438;8.752;2023-02-15T11:39:09;16.60;;;10.20;;
52047;SDS011;46904;49.438;8.752;2023-02-15T11:41:37;14.80;;;9.13;;
52047;SDS011;46904;49.438;8.752;2023-02-15T11:46:29;16.10;;;10.07;;
52047;SDS011;46904;49.438;8.752;2023-02-15T11:48:55;16.92;;;10.23;;
52047;SDS011;46904;49.438;8.752;2023-02-15T11:51:21;16.92;;;10.35;;
52047;SDS011;46904;49.438;8.752;2023-02-15T11:53:47;15.93;;;10.88;;
52047;SDS011;46904;49.438;8.752;2023-02-15T11:56:14;15.82;;;10.02;;
52047;SDS011;46904;49.438;8.752;2023-02-15T11:58:51;15.77;;;10.23;;
52047;SDS011;46904;49.438;8.752;2023-02-15T12:03:50;17.55;;;9.85;;
52047;SDS011;46904;49.438;8.752;2023-02-15T12:06:29;16.08;;;9.50;;
52047;SDS011;46904;49.438;8.752;2023-02-15T12:09:18;14.75;;;8.57;;
52047;SDS011;46904;49.438;8.752;2023-02-15T12:11:41;15.00;;;9.57;;
52047;SDS011;46904;49.438;8.752;2023-02-15T12:14:10;15.55;;;9.20;;
52047;SDS011;46904;49.438;8.752;2023-02-15T12:16:43;15.55;;;9.98;;
52047;SDS011;46904;49.438;8.752;2023-02-15T12:21:54;15.32;;;9.02;;
52047;SDS011;46904;49.438;8.752;2023-02-15T12:24:25;16.05;;;9.75;;
52047;SDS011;46904;49.438;8.752;2023-02-15T12:26:55;16.42;;;10.07;;
52047;SDS011;46904;49.438;8.752;2023-02-15T12:29:22;16.75;;;9.88;;
52047;SDS011;46904;49.438;8.752;2023-02-15T12:34:38;17.10;;;10.00;;
52047;SDS011;46904;49.438;8.752;2023-02-15T12:37:07;13.50;;;8.68;;
52047;SDS011;46904;49.438;8.752;2023-02-15T12:39:34;17.23;;;11.93;;
52047;SDS011;46904;49.438;8.752;2023-02-15T12:42:01;17.55;;;11.18;;
52047;SDS011;46904;49.438;8.752;2023-02-15T12:44:33;17.40;;;11.02;;
52047;SDS011;46904;49.438;8.752;2023-02-15T12:49:29;17.73;;;10.73;;
52047;SDS011;46904;49.438;8.752;2023-02-15T12:51:59;17.08;;;11.10;;
52047;SDS011;46904;49.438;8.752;2023-02-15T12:56:57;13.80;;;9.45;;
52047;SDS011;46904;49.438;8.752;2023-02-15T12:59:25;14.00;;;9.98;;
52047;SDS011;46904;49.438;8.752;2023-02-15T13:01:51;14.65;;;10.40;;
52047;SDS011;46904;49.438;8.752;2023-02-15T13:04:24;19.13;;;11.00;;
52047;SDS011;46904;49.438;8.752;2023-02-15T13:06:52;13.38;;;9.10;;
52047;SDS011;46904;49.438;8.752;2023-02-15T13:09:20;14.13;;;9.75;;
52047;SDS011;46904;49.438;8.752;2023-02-15T13:11:45;13.77;;;9.57;;
52047;SDS011;46904;49.438;8.752;2023-02-15T13:14:19;13.25;;;9.88;;
52047;SDS011;46904;49.438;8.752;2023-02-15T13:16:45;11.63;;;8.82;;
52047;SDS011;46904;49.438;8.752;2023-02-15T13:19:13;14.30;;;10.43;;
52047;SDS011;46904;49.438;8.752;2023-02-15T13:21:41;15.02;;;9.95;;
52047;SDS011;46904;49.438;8.752;2023-02-15T13:26:43;14.60;;;10.20;;
52047;SDS011;46904;49.438;8.752;2023-02-15T13:29:11;14.07;;;9.50;;
52047;SDS011;46904;49.438;8.752;2023-02-15T13:31:40;13.82;;;9.68;;
52047;SDS011;46904;49.438;8.752;2023-02-15T13:34:09;14.35;;;9.63;;
52047;SDS011;46904;49.438;8.752;2023-02-15T13:36:54;13.15;;;9.63;;
52047;SDS011;46904;49.438;8.752;2023-02-15T13:39:42;15.07;;;9.48;;
52047;SDS011;46904;49.438;8.752;2023-02-15T13:47:19;13.63;;;10.18;;
52047;SDS011;46904;49.438;8.752;2023-02-15T13:50:01;12.85;;;9.23;;
52047;SDS011;46904;49.438;8.752;2023-02-15T13:52:33;11.45;;;9.18;;
52047;SDS011;46904;49.438;8.752;2023-02-15T13:55:14;11.75;;;9.23;;
52047;SDS011;46904;49.438;8.752;2023-02-15T13:57:54;11.93;;;8.73;;
52047;SDS011;46904;49.438;8.752;2023-02-15T14:00:25;11.98;;;8.70;;
52047;SDS011;46904;49.438;8.752;2023-02-15T14:10:51;10.88;;;8.90;;
52047;SDS011;46904;49.438;8.752;2023-02-15T14:15:58;14.13;;;9.60;;
52047;SDS011;46904;49.438;8.752;2023-02-15T14:18:29;12.40;;;9.48;;
52047;SDS011;46904;49.438;8.752;2023-02-15T14:21:03;12.30;;;9.20;;
52047;SDS011;46904;49.438;8.752;2023-02-15T14:23:41;11.63;;;9.10;;
52047;SDS011;46904;49.438;8.752;2023-02-15T14:26:15;11.50;;;8.70;;
52047;SDS011;46904;49.438;8.752;2023-02-15T14:31:30;15.75;;;8.60;;
52047;SDS011;46904;49.438;8.752;2023-02-15T14:33:58;13.45;;;9.65;;
52047;SDS011;46904;49.438;8.752;2023-02-15T14:36:24;11.68;;;9.25;;
52047;SDS011;46904;49.438;8.752;2023-02-15T14:44:04;12.55;;;9.25;;
52047;SDS011;46904;49.438;8.752;2023-02-15T14:49:15;11.95;;;8.68;;
52047;SDS011;46904;49.438;8.752;2023-02-15T14:54:07;13.82;;;9.60;;
52047;SDS011;46904;49.438;8.752;2023-02-15T14:56:33;12.13;;;8.55;;
52047;SDS011;46904;49.438;8.752;2023-02-15T14:59:07;11.77;;;8.88;;
52047;SDS011;46904;49.438;8.752;2023-02-15T15:01:37;11.07;;;8.70;;
52047;SDS011;46904;49.438;8.752;2023-02-15T15:04:11;12.40;;;9.30;;
52047;SDS011;46904;49.438;8.752;2023-02-15T15:06:39;11.60;;;9.30;;
52047;SDS011;46904;49.438;8.752;2023-02-15T15:11:43;12.15;;;9.73;;
52047;SDS011;46904;49.438;8.752;2023-02-15T15:14:11;11.32;;;8.70;;
52047;SDS011;46904;49.438;8.752;2023-02-15T15:16:55;10.73;;;8.63;;
52047;SDS011;46904;49.438;8.752;2023-02-15T15:22:05;11.43;;;8.50;;
52047;SDS011;46904;49.438;8.752;2023-02-15T15:29:47;11.00;;;8.15;;
52047;SDS011;46904;49.438;8.752;2023-02-15T15:32:22;11.10;;;8.85;;
52047;SDS011;46904;49.438;8.752;2023-02-15T15:35:34;11.10;;;8.50;;
52047;SDS011;46904;49.438;8.752;2023-02-15T15:42:50;11.52;;;8.57;;
52047;SDS011;46904;49.438;8.752;2023-02-15T15:50:40;11.38;;;8.15;;
52047;SDS011;46904;49.438;8.752;2023-02-15T15:53:06;14.38;;;9.75;;
52047;SDS011;46904;49.438;8.752;2023-02-15T15:55:38;13.98;;;8.65;;
52047;SDS011;46904;49.438;8.752;2023-02-15T15:58:04;11.27;;;8.55;;
52047;SDS011;46904;49.438;8.752;2023-02-15T16:02:56;12.02;;;7.93;;
52047;SDS011;46904;49.438;8.752;2023-02-15T16:05:22;11.90;;;8.32;;
52047;SDS011;46904;49.438;8.752;2023-02-15T16:07:48;13.18;;;9.00;;
52047;SDS011;46904;49.438;8.752;2023-02-15T16:10:27;12.70;;;8.38;;
52047;SDS011;46904;49.438;8.752;2023-02-15T16:12:53;11.32;;;8.10;;
52047;SDS011;46904;49.438;8.752;2023-02-15T16:15:20;11.57;;;8.13;;
52047;SDS011;46904;49.438;8.752;2023-02-15T16:17:47;11.45;;;8.38;;
52047;SDS011;46904;49.438;8.752;2023-02-15T16:22:46;11.98;;;8.02;;
52047;SDS011;46904;49.438;8.752;2023-02-15T16:27:44;12.15;;;8.15;;
52047;SDS011;46904;49.438;8.752;2023-02-15T16:30:17;10.88;;;7.72;;
52047;SDS011;46904;49.438;8.752;2023-02-15T16:32:42;11.57;;;8.00;;
52047;SDS011;46904;49.438;8.752;2023-02-15T16:35:12;10.75;;;7.85;;
52047;SDS011;46904;49.438;8.752;2023-02-15T16:37:38;11.07;;;7.82;;
52047;SDS011;46904;49.438;8.752;2023-02-15T16:40:04;12.82;;;8.70;;
52047;SDS011;46904;49.438;8.752;2023-02-15T16:42:29;13.43;;;8.38;;
52047;SDS011;46904;49.438;8.752;2023-02-15T16:44:57;13.13;;;9.38;;
52047;SDS011;46904;49.438;8.752;2023-02-15T16:47:25;12.70;;;8.82;;
52047;SDS011;46904;49.438;8.752;2023-02-15T16:49:52;13.93;;;8.52;;
52047;SDS011;46904;49.438;8.752;2023-02-15T16:52:20;13.90;;;9.32;;
52047;SDS011;46904;49.438;8.752;2023-02-15T16:54:47;13.20;;;9.23;;
52047;SDS011;46904;49.438;8.752;2023-02-15T16:59:41;12.45;;;8.13;;
52047;SDS011;46904;49.438;8.752;2023-02-15T17:02:32;11.63;;;8.10;;
52047;SDS011;46904;49.438;8.752;2023-02-15T17:07:33;12.98;;;9.10;;
52047;SDS011;46904;49.438;8.752;2023-02-15T17:10:16;15.00;;;9.48;;
52047;SDS011;46904;49.438;8.752;2023-02-15T17:12:52;10.90;;;8.05;;
52047;SDS011;46904;49.438;8.752;2023-02-15T17:17:43;14.52;;;9.27;;
52047;SDS011;46904;49.438;8.752;2023-02-15T17:22:38;16.20;;;10.32;;
52047;SDS011;46904;49.438;8.752;2023-02-15T17:25:05;20.40;;;12.98;;